sensor_id;sensor_type;location;lat;lon;timestamp;temperature;humidity
78571;SHT31;67861;51.966;5.672;2024-01-25T00:02:14;12.4;57.2
78571;SHT31;67861;51.966;5.672;2024-01-25T00:04:43;12.4;57.2
78571;SHT31;67861;51.966;5.672;2024-01-25T00:07:11;12.3;57.1
78571;SHT31;67861;51.966;5.672;2024-01-25T00:09:40;12.3;57.0
78571;SHT31;67861;51.966;5.672;2024-01-25T00:12:10;12.3;57.2
78571;SHT31;67861;51.966;5.672;2024-01-25T00:14:38;12.2;57.2
78571;SHT31;67861;51.966;5.672;2024-01-25T00:17:07;12.2;57.2
78571;SHT31;67861;51.966;5.672;2024-01-25T00:19:35;12.2;57.3
78571;SHT31;67861;51.966;5.672;2024-01-25T00:22:04;12.2;57.3
78571;SHT31;67861;51.966;5.672;2024-01-25T00:24:33;12.1;57.3
78571;SHT31;67861;51.966;5.672;2024-01-25T00:27:03;12.1;57.4
78571;SHT31;67861;51.966;5.672;2024-01-25T00:29:34;12.1;57.4
78571;SHT31;67861;51.966;5.672;2024-01-25T00:32:02;12.1;57.5
78571;SHT31;67861;51.966;5.672;2024-01-25T00:34:32;12.0;57.4
78571;SHT31;67861;51.966;5.672;2024-01-25T00:37:03;12.0;57.5
78571;SHT31;67861;51.966;5.672;2024-01-25T00:39:32;12.0;57.6
78571;SHT31;67861;51.966;5.672;2024-01-25T00:42:04;12.0;57.4
78571;SHT31;67861;51.966;5.672;2024-01-25T00:44:33;11.9;57.5
78571;SHT31;67861;51.966;5.672;2024-01-25T00:47:03;11.9;57.5
78571;SHT31;67861;51.966;5.672;2024-01-25T00:49:32;11.9;57.6
78571;SHT31;67861;51.966;5.672;2024-01-25T00:52:03;11.9;57.8
78571;SHT31;67861;51.966;5.672;2024-01-25T00:54:32;11.9;57.8
78571;SHT31;67861;51.966;5.672;2024-01-25T00:57:01;11.9;57.7
78571;SHT31;67861;51.966;5.672;2024-01-25T00:59:30;11.8;57.6
78571;SHT31;67861;51.966;5.672;2024-01-25T01:01:59;11.8;57.7
78571;SHT31;67861;51.966;5.672;2024-01-25T01:04:29;11.8;57.8
78571;SHT31;67861;51.966;5.672;2024-01-25T01:07:00;11.8;57.6
78571;SHT31;67861;51.966;5.672;2024-01-25T01:09:29;11.8;57.5
78571;SHT31;67861;51.966;5.672;2024-01-25T01:11:59;11.8;57.4
78571;SHT31;67861;51.966;5.672;2024-01-25T01:14:27;11.8;57.6
78571;SHT31;67861;51.966;5.672;2024-01-25T01:16:56;11.8;57.4
78571;SHT31;67861;51.966;5.672;2024-01-25T01:19:24;11.8;57.2
78571;SHT31;67861;51.966;5.672;2024-01-25T01:21:53;11.8;57.0
78571;SHT31;67861;51.966;5.672;2024-01-25T01:24:21;11.8;57.1
78571;SHT31;67861;51.966;5.672;2024-01-25T01:26:50;11.8;56.9
78571;SHT31;67861;51.966;5.672;2024-01-25T01:29:18;11.7;56.8
78571;SHT31;67861;51.966;5.672;2024-01-25T01:31:47;11.7;56.8
78571;SHT31;67861;51.966;5.672;2024-01-25T01:34:15;11.7;56.7
78571;SHT31;67861;51.966;5.672;2024-01-25T01:36:44;11.7;56.6
78571;SHT31;67861;51.966;5.672;2024-01-25T01:39:14;11.7;56.6
78571;SHT31;67861;51.966;5.672;2024-01-25T01:41:46;11.7;56.9
78571;SHT31;67861;51.966;5.672;2024-01-25T01:44:15;11.6;56.9
78571;SHT31;67861;51.966;5.672;2024-01-25T01:46:44;11.6;57.1
78571;SHT31;67861;51.966;5.672;2024-01-25T01:49:14;11.6;57.1
78571;SHT31;67861;51.966;5.672;2024-01-25T01:51:43;11.5;57.1
78571;SHT31;67861;51.966;5.672;2024-01-25T01:54:13;11.5;57.2
78571;SHT31;67861;51.966;5.672;2024-01-25T01:56:43;11.5;57.4
78571;SHT31;67861;51.966;5.672;2024-01-25T01:59:12;11.4;57.3
78571;SHT31;67861;51.966;5.672;2024-01-25T02:01:41;11.4;57.5
78571;SHT31;67861;51.966;5.672;2024-01-25T02:04:09;11.4;57.6
78571;SHT31;67861;51.966;5.672;2024-01-25T02:06:39;11.3;57.7
78571;SHT31;67861;51.966;5.672;2024-01-25T02:09:09;11.3;57.6
78571;SHT31;67861;51.966;5.672;2024-01-25T02:11:40;11.3;57.7
78571;SHT31;67861;51.966;5.672;2024-01-25T02:14:09;11.3;57.5
78571;SHT31;67861;51.966;5.672;2024-01-25T02:16:41;11.3;57.3
78571;SHT31;67861;51.966;5.672;2024-01-25T02:19:11;11.3;57.6
78571;SHT31;67861;51.966;5.672;2024-01-25T02:21:40;11.2;57.3
78571;SHT31;67861;51.966;5.672;2024-01-25T02:24:09;11.2;57.3
78571;SHT31;67861;51.966;5.672;2024-01-25T02:26:40;11.2;57.1
78571;SHT31;67861;51.966;5.672;2024-01-25T02:29:10;11.2;57.3
78571;SHT31;67861;51.966;5.672;2024-01-25T02:31:38;11.2;57.3
78571;SHT31;67861;51.966;5.672;2024-01-25T02:34:07;11.1;57.4
78571;SHT31;67861;51.966;5.672;2024-01-25T02:36:35;11.1;57.7
78571;SHT31;67861;51.966;5.672;2024-01-25T02:39:04;11.1;57.5
78571;SHT31;67861;51.966;5.672;2024-01-25T02:41:33;11.1;57.1
78571;SHT31;67861;51.966;5.672;2024-01-25T02:44:01;11.0;57.3
78571;SHT31;67861;51.966;5.672;2024-01-25T02:46:30;11.0;57.8
78571;SHT31;67861;51.966;5.672;2024-01-25T02:48:58;11.0;57.9
78571;SHT31;67861;51.966;5.672;2024-01-25T02:51:29;10.9;57.9
78571;SHT31;67861;51.966;5.672;2024-01-25T02:53:57;10.9;57.6
78571;SHT31;67861;51.966;5.672;2024-01-25T02:56:25;10.9;57.9
78571;SHT31;67861;51.966;5.672;2024-01-25T02:58:59;10.8;57.7
78571;SHT31;67861;51.966;5.672;2024-01-25T03:01:28;10.8;58.0
78571;SHT31;67861;51.966;5.672;2024-01-25T03:03:58;10.8;57.7
78571;SHT31;67861;51.966;5.672;2024-01-25T03:06:28;10.8;57.7
78571;SHT31;67861;51.966;5.672;2024-01-25T03:08:57;10.7;57.9
78571;SHT31;67861;51.966;5.672;2024-01-25T03:11:25;10.7;58.2
78571;SHT31;67861;51.966;5.672;2024-01-25T03:13:56;10.6;58.9
78571;SHT31;67861;51.966;5.672;2024-01-25T03:16:24;10.6;59.2
78571;SHT31;67861;51.966;5.672;2024-01-25T03:18:53;10.6;59.3
78571;SHT31;67861;51.966;5.672;2024-01-25T03:21:21;10.6;59.1
78571;SHT31;67861;51.966;5.672;2024-01-25T03:23:51;10.5;59.3
78571;SHT31;67861;51.966;5.672;2024-01-25T03:26:19;10.5;59.5
78571;SHT31;67861;51.966;5.672;2024-01-25T03:28:48;10.5;59.7
78571;SHT31;67861;51.966;5.672;2024-01-25T03:31:16;10.5;59.4
78571;SHT31;67861;51.966;5.672;2024-01-25T03:33:45;10.5;59.4
78571;SHT31;67861;51.966;5.672;2024-01-25T03:36:17;10.5;59.7
78571;SHT31;67861;51.966;5.672;2024-01-25T03:38:45;10.5;59.5
78571;SHT31;67861;51.966;5.672;2024-01-25T03:41:14;10.5;59.4
78571;SHT31;67861;51.966;5.672;2024-01-25T03:43:42;10.4;59.0
78571;SHT31;67861;51.966;5.672;2024-01-25T03:46:11;10.4;59.0
78571;SHT31;67861;51.966;5.672;2024-01-25T03:48:42;10.4;59.0
78571;SHT31;67861;51.966;5.672;2024-01-25T03:51:10;10.4;59.4
78571;SHT31;67861;51.966;5.672;2024-01-25T03:53:39;10.4;59.0
78571;SHT31;67861;51.966;5.672;2024-01-25T03:56:12;10.4;59.0
78571;SHT31;67861;51.966;5.672;2024-01-25T03:58:44;10.3;59.3
78571;SHT31;67861;51.966;5.672;2024-01-25T04:01:13;10.3;59.6
78571;SHT31;67861;51.966;5.672;2024-01-25T04:03:41;10.3;59.9
78571;SHT31;67861;51.966;5.672;2024-01-25T04:06:10;10.3;59.7
78571;SHT31;67861;51.966;5.672;2024-01-25T04:08:38;10.3;59.8
78571;SHT31;67861;51.966;5.672;2024-01-25T04:11:07;10.2;59.7
78571;SHT31;67861;51.966;5.672;2024-01-25T04:13:36;10.2;59.5
78571;SHT31;67861;51.966;5.672;2024-01-25T04:16:05;10.2;59.0
78571;SHT31;67861;51.966;5.672;2024-01-25T04:18:33;10.2;59.1
78571;SHT31;67861;51.966;5.672;2024-01-25T04:21:04;10.2;59.1
78571;SHT31;67861;51.966;5.672;2024-01-25T04:23:34;10.2;58.8
78571;SHT31;67861;51.966;5.672;2024-01-25T04:26:02;10.2;58.6
78571;SHT31;67861;51.966;5.672;2024-01-25T04:28:30;10.2;58.8
78571;SHT31;67861;51.966;5.672;2024-01-25T04:30:59;10.2;59.0
78571;SHT31;67861;51.966;5.672;2024-01-25T04:33:27;10.1;59.0
78571;SHT31;67861;51.966;5.672;2024-01-25T04:35:56;10.1;59.4
78571;SHT31;67861;51.966;5.672;2024-01-25T04:38:24;10.1;59.8
78571;SHT31;67861;51.966;5.672;2024-01-25T04:40:53;10.1;59.5
78571;SHT31;67861;51.966;5.672;2024-01-25T04:43:21;10.0;59.8
78571;SHT31;67861;51.966;5.672;2024-01-25T04:45:50;10.0;60.0
78571;SHT31;67861;51.966;5.672;2024-01-25T04:48:18;10.0;60.2
78571;SHT31;67861;51.966;5.672;2024-01-25T04:50:47;10.0;60.5
78571;SHT31;67861;51.966;5.672;2024-01-25T04:53:15;9.9;60.4
78571;SHT31;67861;51.966;5.672;2024-01-25T04:55:44;9.9;60.8
78571;SHT31;67861;51.966;5.672;2024-01-25T04:58:12;9.9;60.5
78571;SHT31;67861;51.966;5.672;2024-01-25T05:00:41;9.9;61.2
78571;SHT31;67861;51.966;5.672;2024-01-25T05:03:09;9.9;60.8
78571;SHT31;67861;51.966;5.672;2024-01-25T05:05:38;9.9;61.0
78571;SHT31;67861;51.966;5.672;2024-01-25T05:08:07;9.8;60.6
78571;SHT31;67861;51.966;5.672;2024-01-25T05:10:37;9.8;60.3
78571;SHT31;67861;51.966;5.672;2024-01-25T05:13:07;9.8;60.2
78571;SHT31;67861;51.966;5.672;2024-01-25T05:15:36;9.8;60.5
78571;SHT31;67861;51.966;5.672;2024-01-25T05:18:05;9.8;60.9
78571;SHT31;67861;51.966;5.672;2024-01-25T05:20:34;9.8;60.8
78571;SHT31;67861;51.966;5.672;2024-01-25T05:23:04;9.8;61.0
78571;SHT31;67861;51.966;5.672;2024-01-25T05:25:33;9.8;61.2
78571;SHT31;67861;51.966;5.672;2024-01-25T05:28:01;9.8;61.3
78571;SHT31;67861;51.966;5.672;2024-01-25T05:30:30;9.7;61.3
78571;SHT31;67861;51.966;5.672;2024-01-25T05:32:59;9.7;61.4
78571;SHT31;67861;51.966;5.672;2024-01-25T05:35:27;9.7;61.5
78571;SHT31;67861;51.966;5.672;2024-01-25T05:37:56;9.7;62.2
78571;SHT31;67861;51.966;5.672;2024-01-25T05:40:24;9.7;61.9
78571;SHT31;67861;51.966;5.672;2024-01-25T05:42:53;9.7;61.7
78571;SHT31;67861;51.966;5.672;2024-01-25T05:45:21;9.6;61.8
78571;SHT31;67861;51.966;5.672;2024-01-25T05:47:51;9.6;61.6
78571;SHT31;67861;51.966;5.672;2024-01-25T05:50:19;9.6;61.4
78571;SHT31;67861;51.966;5.672;2024-01-25T05:52:49;9.6;61.3
78571;SHT31;67861;51.966;5.672;2024-01-25T05:55:18;9.6;61.2
78571;SHT31;67861;51.966;5.672;2024-01-25T05:57:46;9.6;61.5
78571;SHT31;67861;51.966;5.672;2024-01-25T06:00:18;9.6;61.4
78571;SHT31;67861;51.966;5.672;2024-01-25T06:02:46;9.6;61.8
78571;SHT31;67861;51.966;5.672;2024-01-25T06:05:15;9.6;61.5
78571;SHT31;67861;51.966;5.672;2024-01-25T06:07:44;9.6;61.3
78571;SHT31;67861;51.966;5.672;2024-01-25T06:10:17;9.6;61.2
78571;SHT31;67861;51.966;5.672;2024-01-25T06:12:45;9.6;61.0
78571;SHT31;67861;51.966;5.672;2024-01-25T06:15:14;9.6;60.7
78571;SHT31;67861;51.966;5.672;2024-01-25T06:17:42;9.6;60.6
78571;SHT31;67861;51.966;5.672;2024-01-25T06:20:11;9.6;60.4
78571;SHT31;67861;51.966;5.672;2024-01-25T06:22:41;9.6;60.6
78571;SHT31;67861;51.966;5.672;2024-01-25T06:25:10;9.6;60.7
78571;SHT31;67861;51.966;5.672;2024-01-25T06:27:39;9.6;60.6
78571;SHT31;67861;51.966;5.672;2024-01-25T06:30:08;9.5;60.6
78571;SHT31;67861;51.966;5.672;2024-01-25T06:32:37;9.5;61.0
78571;SHT31;67861;51.966;5.672;2024-01-25T06:35:06;9.5;61.2
78571;SHT31;67861;51.966;5.672;2024-01-25T06:37:36;9.5;60.9
78571;SHT31;67861;51.966;5.672;2024-01-25T06:40:05;9.5;61.2
78571;SHT31;67861;51.966;5.672;2024-01-25T06:42:34;9.5;60.9
78571;SHT31;67861;51.966;5.672;2024-01-25T06:45:03;9.5;61.3
78571;SHT31;67861;51.966;5.672;2024-01-25T06:47:31;9.5;60.7
78571;SHT31;67861;51.966;5.672;2024-01-25T06:50:00;9.5;60.6
78571;SHT31;67861;51.966;5.672;2024-01-25T06:52:28;9.5;60.5
78571;SHT31;67861;51.966;5.672;2024-01-25T06:54:57;9.5;60.2
78571;SHT31;67861;51.966;5.672;2024-01-25T06:57:25;9.5;60.2
78571;SHT31;67861;51.966;5.672;2024-01-25T06:59:54;9.5;60.1
78571;SHT31;67861;51.966;5.672;2024-01-25T07:02:22;9.5;60.0
78571;SHT31;67861;51.966;5.672;2024-01-25T07:04:51;9.5;60.0
78571;SHT31;67861;51.966;5.672;2024-01-25T07:07:21;9.5;60.1
78571;SHT31;67861;51.966;5.672;2024-01-25T07:09:49;9.5;60.0
78571;SHT31;67861;51.966;5.672;2024-01-25T07:12:18;9.4;60.1
78571;SHT31;67861;51.966;5.672;2024-01-25T07:14:46;9.4;60.0
78571;SHT31;67861;51.966;5.672;2024-01-25T07:17:15;9.4;60.5
78571;SHT31;67861;51.966;5.672;2024-01-25T07:19:44;9.4;60.4
78571;SHT31;67861;51.966;5.672;2024-01-25T07:22:12;9.4;60.3
78571;SHT31;67861;51.966;5.672;2024-01-25T07:24:42;9.4;60.2
78571;SHT31;67861;51.966;5.672;2024-01-25T07:27:10;9.4;60.3
78571;SHT31;67861;51.966;5.672;2024-01-25T07:29:39;9.4;60.6
78571;SHT31;67861;51.966;5.672;2024-01-25T07:32:07;9.4;60.6
78571;SHT31;67861;51.966;5.672;2024-01-25T07:34:36;9.4;61.0
78571;SHT31;67861;51.966;5.672;2024-01-25T07:37:04;9.4;61.6
78571;SHT31;67861;51.966;5.672;2024-01-25T07:39:33;9.4;62.1
78571;SHT31;67861;51.966;5.672;2024-01-25T07:42:01;9.4;62.6
78571;SHT31;67861;51.966;5.672;2024-01-25T07:44:30;9.4;62.7
78571;SHT31;67861;51.966;5.672;2024-01-25T07:46:58;9.4;62.9
78571;SHT31;67861;51.966;5.672;2024-01-25T07:49:29;9.4;63.2
78571;SHT31;67861;51.966;5.672;2024-01-25T07:51:57;9.4;62.8
78571;SHT31;67861;51.966;5.672;2024-01-25T07:54:28;9.4;62.2
78571;SHT31;67861;51.966;5.672;2024-01-25T07:56:56;9.4;62.0
78571;SHT31;67861;51.966;5.672;2024-01-25T07:59:24;9.4;62.0
78571;SHT31;67861;51.966;5.672;2024-01-25T08:01:53;9.4;62.3
78571;SHT31;67861;51.966;5.672;2024-01-25T08:04:21;9.4;62.2
78571;SHT31;67861;51.966;5.672;2024-01-25T08:06:51;9.4;61.8
78571;SHT31;67861;51.966;5.672;2024-01-25T08:09:20;9.4;61.5
78571;SHT31;67861;51.966;5.672;2024-01-25T08:11:49;9.4;61.8
78571;SHT31;67861;51.966;5.672;2024-01-25T08:14:18;9.4;61.9
78571;SHT31;67861;51.966;5.672;2024-01-25T08:16:48;9.4;62.1
78571;SHT31;67861;51.966;5.672;2024-01-25T08:19:19;9.4;62.2
78571;SHT31;67861;51.966;5.672;2024-01-25T08:21:47;9.5;62.3
78571;SHT31;67861;51.966;5.672;2024-01-25T08:24:16;9.5;62.3
78571;SHT31;67861;51.966;5.672;2024-01-25T08:26:44;9.5;62.5
78571;SHT31;67861;51.966;5.672;2024-01-25T08:29:13;9.5;62.6
78571;SHT31;67861;51.966;5.672;2024-01-25T08:31:41;9.5;62.5
78571;SHT31;67861;51.966;5.672;2024-01-25T08:34:10;9.5;62.5
78571;SHT31;67861;51.966;5.672;2024-01-25T08:36:38;9.5;62.5
78571;SHT31;67861;51.966;5.672;2024-01-25T08:39:07;9.5;62.5
78571;SHT31;67861;51.966;5.672;2024-01-25T08:41:35;9.5;62.8
78571;SHT31;67861;51.966;5.672;2024-01-25T08:44:04;9.5;62.9
78571;SHT31;67861;51.966;5.672;2024-01-25T08:46:33;9.5;62.7
78571;SHT31;67861;51.966;5.672;2024-01-25T08:49:01;9.5;62.8
78571;SHT31;67861;51.966;5.672;2024-01-25T08:51:34;9.5;63.1
78571;SHT31;67861;51.966;5.672;2024-01-25T08:54:03;9.5;63.2
78571;SHT31;67861;51.966;5.672;2024-01-25T08:56:31;9.6;63.4
78571;SHT31;67861;51.966;5.672;2024-01-25T08:59:01;9.6;63.4
78571;SHT31;67861;51.966;5.672;2024-01-25T09:01:29;9.6;63.5
78571;SHT31;67861;51.966;5.672;2024-01-25T09:03:57;9.6;63.6
78571;SHT31;67861;51.966;5.672;2024-01-25T09:06:29;9.6;63.8
78571;SHT31;67861;51.966;5.672;2024-01-25T09:08:57;9.7;63.8
78571;SHT31;67861;51.966;5.672;2024-01-25T09:11:26;9.7;63.7
78571;SHT31;67861;51.966;5.672;2024-01-25T09:13:55;9.7;63.7
78571;SHT31;67861;51.966;5.672;2024-01-25T09:16:23;9.8;63.7
78571;SHT31;67861;51.966;5.672;2024-01-25T09:18:51;9.8;63.7
78571;SHT31;67861;51.966;5.672;2024-01-25T09:21:20;9.9;63.8
78571;SHT31;67861;51.966;5.672;2024-01-25T09:23:48;9.9;63.7
78571;SHT31;67861;51.966;5.672;2024-01-25T09:26:17;10.0;63.7
78571;SHT31;67861;51.966;5.672;2024-01-25T09:28:45;10.0;63.5
78571;SHT31;67861;51.966;5.672;2024-01-25T09:31:14;10.0;63.5
78571;SHT31;67861;51.966;5.672;2024-01-25T09:33:42;10.0;63.5
78571;SHT31;67861;51.966;5.672;2024-01-25T09:36:11;10.1;63.6
78571;SHT31;67861;51.966;5.672;2024-01-25T09:38:39;10.1;63.7
78571;SHT31;67861;51.966;5.672;2024-01-25T09:41:08;10.1;63.8
78571;SHT31;67861;51.966;5.672;2024-01-25T09:43:37;10.1;63.8
78571;SHT31;67861;51.966;5.672;2024-01-25T09:46:07;10.2;63.6
78571;SHT31;67861;51.966;5.672;2024-01-25T09:48:37;10.2;63.8
78571;SHT31;67861;51.966;5.672;2024-01-25T09:51:06;10.2;63.9
78571;SHT31;67861;51.966;5.672;2024-01-25T09:53:37;10.2;64.0
78571;SHT31;67861;51.966;5.672;2024-01-25T09:56:08;10.3;64.2
78571;SHT31;67861;51.966;5.672;2024-01-25T09:58:40;10.3;64.2
78571;SHT31;67861;51.966;5.672;2024-01-25T10:01:12;10.3;64.5
78571;SHT31;67861;51.966;5.672;2024-01-25T10:03:43;10.4;64.8
78571;SHT31;67861;51.966;5.672;2024-01-25T10:06:13;10.4;65.1
78571;SHT31;67861;51.966;5.672;2024-01-25T10:08:42;10.5;65.1
78571;SHT31;67861;51.966;5.672;2024-01-25T10:11:11;10.5;64.9
78571;SHT31;67861;51.966;5.672;2024-01-25T10:13:44;10.6;64.0
78571;SHT31;67861;51.966;5.672;2024-01-25T10:16:15;10.6;63.7
78571;SHT31;67861;51.966;5.672;2024-01-25T10:18:46;10.6;63.9
78571;SHT31;67861;51.966;5.672;2024-01-25T10:21:15;10.7;63.6
78571;SHT31;67861;51.966;5.672;2024-01-25T10:23:46;10.7;63.9
78571;SHT31;67861;51.966;5.672;2024-01-25T10:26:17;10.7;63.7
78571;SHT31;67861;51.966;5.672;2024-01-25T10:28:52;10.7;63.7
78571;SHT31;67861;51.966;5.672;2024-01-25T10:31:22;10.8;64.1
78571;SHT31;67861;51.966;5.672;2024-01-25T10:33:52;10.8;63.8
78571;SHT31;67861;51.966;5.672;2024-01-25T10:36:22;10.8;64.7
78571;SHT31;67861;51.966;5.672;2024-01-25T10:38:55;10.9;64.2
78571;SHT31;67861;51.966;5.672;2024-01-25T10:41:26;10.9;64.4
78571;SHT31;67861;51.966;5.672;2024-01-25T10:43:57;11.0;64.2
78571;SHT31;67861;51.966;5.672;2024-01-25T10:46:26;11.0;63.9
78571;SHT31;67861;51.966;5.672;2024-01-25T10:48:57;11.1;63.9
78571;SHT31;67861;51.966;5.672;2024-01-25T10:51:27;11.1;64.0
78571;SHT31;67861;51.966;5.672;2024-01-25T10:53:55;11.2;63.8
78571;SHT31;67861;51.966;5.672;2024-01-25T10:56:25;11.2;63.5
78571;SHT31;67861;51.966;5.672;2024-01-25T10:58:53;11.3;63.5
78571;SHT31;67861;51.966;5.672;2024-01-25T11:01:24;11.3;63.6
78571;SHT31;67861;51.966;5.672;2024-01-25T11:03:53;11.4;63.4
78571;SHT31;67861;51.966;5.672;2024-01-25T11:06:22;11.4;63.5
78571;SHT31;67861;51.966;5.672;2024-01-25T11:08:51;11.4;63.2
78571;SHT31;67861;51.966;5.672;2024-01-25T11:11:20;11.5;63.4
78571;SHT31;67861;51.966;5.672;2024-01-25T11:13:50;11.5;63.3
78571;SHT31;67861;51.966;5.672;2024-01-25T11:16:29;11.6;63.4
78571;SHT31;67861;51.966;5.672;2024-01-25T11:19:00;11.6;63.6
78571;SHT31;67861;51.966;5.672;2024-01-25T11:21:41;11.7;63.4
78571;SHT31;67861;51.966;5.672;2024-01-25T11:24:14;11.7;62.8
78571;SHT31;67861;51.966;5.672;2024-01-25T11:26:45;11.8;63.0
78571;SHT31;67861;51.966;5.672;2024-01-25T11:29:15;11.8;62.8
78571;SHT31;67861;51.966;5.672;2024-01-25T11:31:44;11.8;62.7
78571;SHT31;67861;51.966;5.672;2024-01-25T11:34:14;11.9;62.2
78571;SHT31;67861;51.966;5.672;2024-01-25T11:36:45;11.9;62.2
78571;SHT31;67861;51.966;5.672;2024-01-25T11:39:16;11.9;62.0
78571;SHT31;67861;51.966;5.672;2024-01-25T11:41:45;12.0;62.3
78571;SHT31;67861;51.966;5.672;2024-01-25T11:44:15;12.0;61.8
78571;SHT31;67861;51.966;5.672;2024-01-25T11:46:43;12.0;61.9
78571;SHT31;67861;51.966;5.672;2024-01-25T11:49:12;12.1;62.5
78571;SHT31;67861;51.966;5.672;2024-01-25T11:51:40;12.1;62.4
78571;SHT31;67861;51.966;5.672;2024-01-25T11:54:09;12.2;62.7
78571;SHT31;67861;51.966;5.672;2024-01-25T11:56:39;12.2;61.6
78571;SHT31;67861;51.966;5.672;2024-01-25T11:59:10;12.3;61.6
78571;SHT31;67861;51.966;5.672;2024-01-25T12:01:40;12.3;61.9
78571;SHT31;67861;51.966;5.672;2024-01-25T12:04:09;12.3;61.2
78571;SHT31;67861;51.966;5.672;2024-01-25T12:06:38;12.4;60.8
78571;SHT31;67861;51.966;5.672;2024-01-25T12:09:11;12.4;60.9
78571;SHT31;67861;51.966;5.672;2024-01-25T12:11:41;12.4;61.2
78571;SHT31;67861;51.966;5.672;2024-01-25T12:14:10;12.5;61.0
78571;SHT31;67861;51.966;5.672;2024-01-25T12:16:39;12.5;60.8
78571;SHT31;67861;51.966;5.672;2024-01-25T12:19:09;12.5;61.0
78571;SHT31;67861;51.966;5.672;2024-01-25T12:21:38;12.5;60.6
78571;SHT31;67861;51.966;5.672;2024-01-25T12:24:07;12.5;61.0
78571;SHT31;67861;51.966;5.672;2024-01-25T12:26:37;12.5;61.1
78571;SHT31;67861;51.966;5.672;2024-01-25T12:29:05;12.6;61.0
78571;SHT31;67861;51.966;5.672;2024-01-25T12:31:34;12.6;60.9
78571;SHT31;67861;51.966;5.672;2024-01-25T12:34:03;12.6;61.5
78571;SHT31;67861;51.966;5.672;2024-01-25T12:36:31;12.6;61.7
78571;SHT31;67861;51.966;5.672;2024-01-25T12:39:00;12.6;61.4
78571;SHT31;67861;51.966;5.672;2024-01-25T12:41:29;12.7;61.2
78571;SHT31;67861;51.966;5.672;2024-01-25T12:43:58;12.7;60.8
78571;SHT31;67861;51.966;5.672;2024-01-25T12:46:26;12.7;61.1
78571;SHT31;67861;51.966;5.672;2024-01-25T12:48:55;12.8;61.0
78571;SHT31;67861;51.966;5.672;2024-01-25T12:51:26;12.8;60.4
78571;SHT31;67861;51.966;5.672;2024-01-25T12:53:55;12.8;60.1
78571;SHT31;67861;51.966;5.672;2024-01-25T12:56:23;12.8;60.3
78571;SHT31;67861;51.966;5.672;2024-01-25T12:58:52;12.8;59.9
78571;SHT31;67861;51.966;5.672;2024-01-25T13:01:20;12.8;59.5
78571;SHT31;67861;51.966;5.672;2024-01-25T13:03:49;12.8;60.2
78571;SHT31;67861;51.966;5.672;2024-01-25T13:06:19;12.9;59.5
78571;SHT31;67861;51.966;5.672;2024-01-25T13:08:48;12.9;59.8
78571;SHT31;67861;51.966;5.672;2024-01-25T13:11:18;12.9;60.2
78571;SHT31;67861;51.966;5.672;2024-01-25T13:13:46;12.9;59.7
78571;SHT31;67861;51.966;5.672;2024-01-25T13:16:17;12.9;60.0
78571;SHT31;67861;51.966;5.672;2024-01-25T13:18:45;12.9;59.8
78571;SHT31;67861;51.966;5.672;2024-01-25T13:21:14;12.9;59.7
78571;SHT31;67861;51.966;5.672;2024-01-25T13:23:42;13.0;59.9
78571;SHT31;67861;51.966;5.672;2024-01-25T13:26:11;13.0;59.7
78571;SHT31;67861;51.966;5.672;2024-01-25T13:28:39;13.0;59.7
78571;SHT31;67861;51.966;5.672;2024-01-25T13:31:08;13.0;60.1
78571;SHT31;67861;51.966;5.672;2024-01-25T13:33:36;13.0;60.1
78571;SHT31;67861;51.966;5.672;2024-01-25T13:36:05;13.0;60.0
78571;SHT31;67861;51.966;5.672;2024-01-25T13:38:37;13.0;60.0
78571;SHT31;67861;51.966;5.672;2024-01-25T13:41:06;13.0;60.3
78571;SHT31;67861;51.966;5.672;2024-01-25T13:43:35;13.0;60.4
78571;SHT31;67861;51.966;5.672;2024-01-25T13:46:03;13.0;60.1
78571;SHT31;67861;51.966;5.672;2024-01-25T13:48:32;13.0;60.0
78571;SHT31;67861;51.966;5.672;2024-01-25T13:51:00;13.0;60.1
78571;SHT31;67861;51.966;5.672;2024-01-25T13:53:29;13.0;60.3
78571;SHT31;67861;51.966;5.672;2024-01-25T13:55:57;13.0;60.5
78571;SHT31;67861;51.966;5.672;2024-01-25T13:58:26;13.1;60.5
78571;SHT31;67861;51.966;5.672;2024-01-25T14:00:54;13.1;60.5
78571;SHT31;67861;51.966;5.672;2024-01-25T14:03:23;13.1;60.3
78571;SHT31;67861;51.966;5.672;2024-01-25T14:05:51;13.1;60.4
78571;SHT31;67861;51.966;5.672;2024-01-25T14:08:22;13.1;60.2
78571;SHT31;67861;51.966;5.672;2024-01-25T14:10:50;13.1;60.1
78571;SHT31;67861;51.966;5.672;2024-01-25T14:13:18;13.1;60.4
78571;SHT31;67861;51.966;5.672;2024-01-25T14:15:47;13.1;60.2
78571;SHT31;67861;51.966;5.672;2024-01-25T14:18:15;13.1;60.5
78571;SHT31;67861;51.966;5.672;2024-01-25T14:20:44;13.1;60.4
78571;SHT31;67861;51.966;5.672;2024-01-25T14:23:13;13.1;60.5
78571;SHT31;67861;51.966;5.672;2024-01-25T14:25:41;13.1;60.5
78571;SHT31;67861;51.966;5.672;2024-01-25T14:28:11;13.1;60.7
78571;SHT31;67861;51.966;5.672;2024-01-25T14:30:41;13.1;60.5
78571;SHT31;67861;51.966;5.672;2024-01-25T14:33:13;13.1;60.6
78571;SHT31;67861;51.966;5.672;2024-01-25T14:35:41;13.0;60.8
78571;SHT31;67861;51.966;5.672;2024-01-25T14:38:12;13.0;60.6
78571;SHT31;67861;51.966;5.672;2024-01-25T14:40:40;13.0;60.7
78571;SHT31;67861;51.966;5.672;2024-01-25T14:43:09;13.0;60.9
78571;SHT31;67861;51.966;5.672;2024-01-25T14:45:37;13.0;61.0
78571;SHT31;67861;51.966;5.672;2024-01-25T14:48:06;13.0;60.9
78571;SHT31;67861;51.966;5.672;2024-01-25T14:50:35;13.0;61.0
78571;SHT31;67861;51.966;5.672;2024-01-25T14:53:03;13.0;61.0
78571;SHT31;67861;51.966;5.672;2024-01-25T14:55:32;13.0;61.0
78571;SHT31;67861;51.966;5.672;2024-01-25T14:58:00;13.0;61.1
78571;SHT31;67861;51.966;5.672;2024-01-25T15:00:29;13.0;60.9
78571;SHT31;67861;51.966;5.672;2024-01-25T15:02:57;13.0;61.0
78571;SHT31;67861;51.966;5.672;2024-01-25T15:05:25;13.0;60.9
78571;SHT31;67861;51.966;5.672;2024-01-25T15:07:54;13.0;61.0
78571;SHT31;67861;51.966;5.672;2024-01-25T15:10:22;13.0;61.1
78571;SHT31;67861;51.966;5.672;2024-01-25T15:12:51;13.0;61.4
78571;SHT31;67861;51.966;5.672;2024-01-25T15:15:21;12.9;61.5
78571;SHT31;67861;51.966;5.672;2024-01-25T15:17:51;12.9;61.9
78571;SHT31;67861;51.966;5.672;2024-01-25T15:20:20;12.9;62.1
78571;SHT31;67861;51.966;5.672;2024-01-25T15:22:49;12.9;62.5
78571;SHT31;67861;51.966;5.672;2024-01-25T15:25:20;12.9;62.7
78571;SHT31;67861;51.966;5.672;2024-01-25T15:27:51;12.8;62.8
78571;SHT31;67861;51.966;5.672;2024-01-25T15:30:19;12.8;63.1
78571;SHT31;67861;51.966;5.672;2024-01-25T15:32:49;12.8;63.3
78571;SHT31;67861;51.966;5.672;2024-01-25T15:35:20;12.8;63.3
78571;SHT31;67861;51.966;5.672;2024-01-25T15:37:48;12.8;63.5
78571;SHT31;67861;51.966;5.672;2024-01-25T15:40:17;12.8;63.6
78571;SHT31;67861;51.966;5.672;2024-01-25T15:42:46;12.7;63.7
78571;SHT31;67861;51.966;5.672;2024-01-25T15:45:17;12.7;63.8
78571;SHT31;67861;51.966;5.672;2024-01-25T15:47:46;12.7;64.0
78571;SHT31;67861;51.966;5.672;2024-01-25T15:50:15;12.7;64.1
78571;SHT31;67861;51.966;5.672;2024-01-25T15:52:45;12.7;64.1
78571;SHT31;67861;51.966;5.672;2024-01-25T15:55:13;12.7;64.2
78571;SHT31;67861;51.966;5.672;2024-01-25T15:57:42;12.6;64.3
78571;SHT31;67861;51.966;5.672;2024-01-25T16:00:12;12.6;64.3
78571;SHT31;67861;51.966;5.672;2024-01-25T16:02:41;12.6;64.4
78571;SHT31;67861;51.966;5.672;2024-01-25T16:05:10;12.6;64.4
78571;SHT31;67861;51.966;5.672;2024-01-25T16:07:39;12.6;64.5
78571;SHT31;67861;51.966;5.672;2024-01-25T16:10:09;12.6;64.5
78571;SHT31;67861;51.966;5.672;2024-01-25T16:12:37;12.6;64.6
78571;SHT31;67861;51.966;5.672;2024-01-25T16:15:06;12.6;64.6
78571;SHT31;67861;51.966;5.672;2024-01-25T16:17:35;12.6;64.6
78571;SHT31;67861;51.966;5.672;2024-01-25T16:20:04;12.6;64.6